CW8593 Weather Reports


Display with metric or nautical units.
time (UTC)temp
F
wind
direction
speed
MPH
gust
MPH
rain 1hr
in
rain 24hr
in
rain mn
in
humidity
%
barometer
mb
20220808094803 86 120 8.0 13.0 0.00 0.00 0.00 45 1015.5
20220808094304 86 111 3.0 9.0 0.00 0.00 0.00 46 1015.5
20220808093804 86 117 5.0 12.0 0.00 0.00 0.00 47 1015.5
20220808093304 86 99 9.0 16.0 0.00 0.00 0.00 46 1015.4
20220808092803 86 85 7.0 13.0 0.00 0.00 0.00 47 1015.4
20220808092305 86 53 4.0 10.0 0.00 0.00 0.00 48 1015.4
20220808091804 86 59 3.0 8.0 0.00 0.00 0.00 46 1015.4
20220808091304 85 62 7.0 12.0 0.00 0.00 0.00 48 1015.3
20220808090804 85 89 6.0 10.0 0.00 0.00 0.00 47 1015.4
20220808090304 85 109 8.0 13.0 0.00 0.00 0.00 47 1015.3
20220808085804 85 96 7.0 12.0 0.00 0.00 0.00 47 1015.3
20220808085306 85 53 6.0 12.0 0.00 0.00 0.00 47 1015.3
20220808084803 86 91 5.0 12.0 0.00 0.00 0.00 48 1015.3
20220808084304 85 111 3.0 12.0 0.00 0.00 0.00 50 1015.3
20220808083303 85 62 7.0 12.0 0.00 0.00 0.00 50 1015.3
20220808082804 85 69 3.0 10.0 0.00 0.00 0.00 50 1015.3
20220808082305 84 37 5.0 8.0 0.00 0.00 0.00 51 1015.2
20220808081804 84 46 5.0 10.0 0.00 0.00 0.00 51 1015.2
20220808081304 84 61 3.0 12.0 0.00 0.00 0.00 51 1015.2
20220808080304 85 97 3.0 10.0 0.00 0.00 0.00 50 1015.1
20220808075804 85 49 5.0 10.0 0.00 0.00 0.00 49 1015.1
20220808075305 84 56 2.0 9.0 0.00 0.00 0.00 51 1015.1
20220808074804 84 52 4.0 9.0 0.00 0.00 0.00 51 1015.1
20220808074304 84 75 3.0 8.0 0.00 0.00 0.00 52 1015.1
20220808073303 85 64 3.0 6.0 0.00 0.00 0.00 50 1015.0
20220808072803 85 24 0.0 3.0 0.00 0.00 0.00 51 1014.9
20220808072305 84 22 1.0 8.0 0.00 0.00 0.00 53 1014.9
20220808071303 84 16 1.0 7.0 0.00 0.00 0.00 54 1014.8
20220808070803 84 22 5.0 9.0 0.00 0.00 0.00 53 1014.8
20220808070303 84 350 5.0 8.0 0.00 0.00 0.00 51 1014.7
20220808065802 84 355 0.0 3.0 0.00 0.00 0.00 51 1014.7
20220808065305 83 355 3.0 6.0 0.00 0.00 0.00 51 1014.7
20220808064803 83 346 2.0 5.0 0.00 0.00 0.00 52 1014.6
20220808062803 80 337 2.0 8.0 0.00 0.00 0.00 59 1014.3
20220808062305 79 323 5.0 9.0 0.00 0.00 0.00 60 1014.2
20220808061303 77 301 7.0 12.0 0.00 0.00 0.00 64 1014.1
20220808060802 77 299 7.0 15.0 0.00 0.00 0.00 65 1014.1
20220808060303 76 324 7.0 13.0 0.00 0.00 0.00 66 1014.1
20220808055305 76 301 9.0 13.0 0.00 0.00 0.00 67 1014.1
20220808054803 76 296 8.0 14.0 0.00 0.00 0.00 66 1014.1
20220808054303 76 307 7.0 12.0 0.00 0.00 0.00 66 1014.1
20220808052803 76 342 6.0 12.0 0.00 0.00 0.00 65 1013.8
20220808052305 76 332 3.0 9.0 0.00 0.00 0.00 65 1013.8
20220808051803 76 301 0.0 0.0 0.00 0.00 0.00 67 1013.7
20220808051303 76 301 0.0 0.0 0.00 0.00 0.00 67 1013.6
20220808050803 76 301 1.0 3.0 0.00 0.00 0.00 67 1013.5
20220808050303 76 301 0.0 2.0 0.00 0.00 0.00 68 1013.4
20220808045305 76 301 0.0 2.0 0.00 0.00 0.00 69 1013.2
20220808044803 76 301 0.0 0.0 0.00 0.00 0.00 68 1013.1
20220808044303 76 301 0.0 0.0 0.00 0.00 0.00 68 1013.1
20220808043303 76 301 0.0 0.0 0.00 0.00 0.00 67 1013.2
20220808042803 76 301 0.0 0.0 0.00 0.00 0.00 67 1013.2
20220808041303 77 301 0.0 0.0 0.00 0.00 0.00 66 1013.2
20220808040804 77 301 0.0 0.0 0.00 0.00 0.00 65 1013.1
20220808040303 77 301 0.0 3.0 0.00 0.00 0.00 66 1013.2
20220808035803 77 299 0.0 3.0 0.00 0.00 0.00 66 1013.2
20220808034804 77 299 0.0 0.0 0.00 0.00 0.00 65 1013.2
20220808034303 76 299 0.0 0.0 0.00 0.00 0.00 66 1013.1
20220808033803 76 299 0.0 0.0 0.00 0.00 0.00 66 1013.1
20220808032803 76 299 0.0 0.0 0.00 0.00 0.00 65 1013.1
20220808032305 76 299 0.0 1.0 0.00 0.00 0.00 64 1013.1
20220808031803 77 299 0.0 0.0 0.00 0.00 0.00 64 1013.2
20220808031303 77 299 0.0 0.0 0.00 0.00 0.00 63 1013.2
20220808030804 77 299 0.0 3.0 0.00 0.00 0.00 63 1013.2
20220808024804 78 299 0.0 0.0 0.00 0.00 0.00 62 1013.2
20220808023804 78 299 0.0 0.0 0.00 0.00 0.00 61 1013.2
20220808023303 79 298 0.0 0.0 0.00 0.00 0.00 60 1013.2
20220808022804 79 299 0.0 1.0 0.00 0.00 0.00 60 1013.1
20220808021803 79 299 3.0 7.0 0.00 0.00 0.00 59 1013.2
20220808021304 79 298 3.0 7.0 0.00 0.00 0.00 59 1013.1
20220808020803 79 298 2.0 9.0 0.00 0.00 0.00 59 1013.1
20220808020303 79 311 2.0 8.0 0.00 0.00 0.00 59 1013.1
20220808015305 79 325 4.0 9.0 0.00 0.00 0.00 60 1013.1
20220808014304 79 309 6.0 12.0 0.00 0.00 0.00 60 1013.2
20220808013803 78 301 7.0 12.0 0.00 0.00 0.00 61 1013.2
20220808013303 79 307 5.0 10.0 0.00 0.00 0.00 61 1013.2
20220808012804 79 323 4.0 9.0 0.00 0.00 0.00 61 1013.3
20220808012306 79 325 5.0 9.0 0.00 0.00 0.00 61 1013.3
20220808011804 79 336 3.0 8.0 0.00 0.00 0.00 61 1013.3
20220808010804 78 315 3.0 9.0 0.00 0.00 0.00 62 1013.4
20220808010304 78 300 3.0 9.0 0.00 0.00 0.00 62 1013.4
20220808005804 78 337 5.0 8.0 0.00 0.00 0.00 62 1013.4
20220808005305 78 302 3.0 9.0 0.00 0.00 0.00 62 1013.4
20220808004804 78 320 5.0 9.0 0.00 0.00 0.00 62 1013.4
20220808002804 79 311 4.0 8.0 0.00 0.00 0.00 63 1013.5
20220808002305 79 346 4.0 12.0 0.00 0.00 0.00 63 1013.5
20220808001304 79 351 4.0 9.0 0.00 0.00 0.00 63 1013.5
20220808000804 79 308 4.0 8.0 0.00 0.00 0.00 63 1013.6
20220808000304 79 340 4.0 8.0 0.00 0.00 0.00 64 1013.6
20220807235305 79 327 5.0 10.0 0.00 0.00 0.00 64 1013.6
20220807234804 79 342 2.0 6.0 0.00 0.00 0.00 65 1013.6
20220807234304 79 341 3.0 8.0 0.00 0.00 0.00 66 1013.6
20220807233804 79 342 0.0 3.0 0.00 0.00 0.00 66 1013.5
20220807233303 79 342 1.0 3.0 0.00 0.00 0.00 66 1013.5
20220807232804 79 342 0.0 2.0 0.00 0.00 0.00 65 1013.6
20220807232305 79 342 0.0 0.0 0.00 0.00 0.00 65 1013.5
20220807231303 79 342 3.0 5.0 0.00 0.00 0.00 65 1013.7
20220807230805 79 355 1.0 3.0 0.00 0.00 0.00 65 1013.6
20220807230304 79 355 2.0 5.0 0.00 0.00 0.00 65 1013.6
20220807225804 79 78 0.0 3.0 0.00 0.00 0.00 65 1013.6
20220807225306 80 78 0.0 0.0 0.00 0.00 0.00 65 1013.5
20220807224804 80 78 0.0 0.0 0.00 0.00 0.00 66 1013.5
20220807224304 80 78 0.0 0.0 0.00 0.00 0.00 66 1013.5
20220807223804 81 78 0.0 0.0 0.00 0.00 0.00 65 1013.5
20220807223304 81 78 0.0 0.0 0.00 0.00 0.00 65 1013.4
20220807221803 81 78 0.0 0.0 0.00 0.00 0.00 62 1013.4
20220807221303 81 78 0.0 0.0 0.00 0.00 0.00 62 1013.3
20220807215803 82 92 1.0 6.0 0.00 0.00 0.00 61 1013.0
20220807215305 82 92 0.0 0.0 0.00 0.00 0.00 60 1012.8
20220807214803 83 92 1.0 7.0 0.00 0.00 0.00 60 1012.9
20220807214303 83 16 0.0 5.0 0.00 0.00 0.00 60 1012.9
20220807213802 83 3 1.0 3.0 0.00 0.00 0.00 60 1012.8
20220807213303 83 3 0.0 0.0 0.00 0.00 0.00 60 1012.7
20220807212305 83 0 1.0 3.0 0.00 0.00 0.00 62 1012.5
20220807211803 83 0 0.0 2.0 0.00 0.00 0.00 63 1012.5
20220807211303 83 0 0.0 0.0 0.00 0.00 0.00 63 1012.5
20220807210803 82 0 1.0 5.0 0.00 0.00 0.00 64 1012.5
20220807210303 82 293 0.0 1.0 0.00 0.00 0.00 65 1012.4
20220807205803 82 293 0.0 1.0 0.00 0.00 0.00 65 1012.3
20220807205305 82 293 0.0 1.0 0.00 0.00 0.00 65 1012.3
20220807204803 82 293 0.0 3.0 0.00 0.00 0.00 65 1012.3
20220807204303 82 293 0.0 5.0 0.00 0.00 0.00 65 1012.5
20220807203303 82 296 5.0 5.0 0.00 0.00 0.00 63 1012.6
20220807202803 82 296 5.0 8.0 0.00 0.00 0.00 63 1012.7
20220807202305 82 331 3.0 6.0 0.00 0.00 0.00 61 1012.7
20220807201303 82 321 1.0 6.0 0.00 0.00 0.00 59 1012.7
20220807200303 82 318 1.0 3.0 0.00 0.00 0.00 59 1012.5
20220807195803 82 318 3.0 6.0 0.00 0.00 0.00 59 1012.7
20220807195305 82 325 1.0 5.0 0.00 0.00 0.00 60 1012.8
20220807194803 82 311 5.0 9.0 0.00 0.00 0.00 61 1012.8
20220807194303 83 81 0.0 3.0 0.00 0.00 0.00 66 1012.6
20220807193803 83 117 0.0 3.0 0.00 0.00 0.00 71 1012.6
20220807192803 84 21 0.0 2.0 0.00 0.00 0.00 72 1012.4
20220807192305 84 20 0.0 0.0 0.00 0.00 0.00 71 1012.5
20220807191803 84 20 0.0 0.0 0.00 0.00 0.00 70 1012.5
20220807191303 84 20 0.0 1.0 0.00 0.00 0.00 67 1012.4
20220807190803 84 19 0.0 1.0 0.00 0.00 0.00 65 1012.4
20220807185803 84 19 0.0 1.0 0.00 0.00 0.00 61 1012.7
20220807185306 85 19 1.0 3.0 0.00 0.00 0.00 59 1012.6
20220807184803 85 19 1.0 3.0 0.00 0.00 0.00 58 1012.7
20220807184303 85 19 0.0 3.0 0.00 0.00 0.00 58 1012.8
20220807183804 85 19 0.0 0.0 0.00 0.00 0.00 57 1012.9
20220807183303 85 19 0.0 0.0 0.00 0.00 0.00 56 1012.9
20220807182305 85 19 0.0 3.0 0.00 0.00 0.00 56 1013.0
20220807181803 85 19 0.0 3.0 0.00 0.00 0.00 58 1013.0
20220807181303 85 19 0.0 3.0 0.00 0.00 0.00 59 1013.2
20220807180803 85 17 0.0 3.0 0.00 0.00 0.00 63 1013.1
20220807175804 85 15 0.0 1.0 0.00 0.00 0.00 65 1013.2
20220807175305 85 15 1.0 3.0 0.00 0.00 0.00 66 1013.4
20220807174804 85 15 0.0 3.0 0.00 0.00 0.00 67 1013.6
20220807174306 85 64 0.0 3.0 0.00 0.00 0.00 67 1013.4
20220807152804 86 196 5.0 10.0 0.00 0.00 0.00 66 1012.7
20220807151803 86 155 3.0 10.0 0.00 0.00 0.00 65 1012.7
20220807151304 86 175 3.0 12.0 0.00 0.00 0.00 65 1012.6
20220807145305 86 166 6.0 18.0 0.00 0.00 0.00 64 1012.8
20220807144303 86 121 4.0 10.0 0.00 0.00 0.00 64 1012.9
20220807143803 86 168 4.0 15.0 0.00 0.00 0.00 64 1012.9
20220807142305 86 142 6.0 12.0 0.00 0.00 0.00 63 1013.1
20220807141304 86 197 3.0 13.0 0.00 0.00 0.00 65 1013.2
20220807140804 85 138 5.0 12.0 0.00 0.00 0.00 64 1013.3
20220807135804 85 147 3.0 7.0 0.00 0.00 0.00 64 1013.5
20220807134804 85 160 4.0 12.0 0.00 0.00 0.00 61 1013.6
20220807134304 86 155 3.0 10.0 0.00 0.00 0.00 60 1013.6
20220807133804 86 157 6.0 14.0 0.00 0.00 0.00 60 1013.7
20220807133304 86 168 4.0 9.0 0.00 0.00 0.00 57 1013.7
20220807132804 87 170 4.0 10.0 0.00 0.00 0.00 56 1013.8
20220807132305 86 134 3.0 10.0 0.00 0.00 0.00 56 1013.8
20220807131802 87 127 7.0 12.0 0.00 0.00 0.00 55 1013.8
20220807131303 87 119 6.0 12.0 0.00 0.00 0.00 53 1013.9
20220807130803 87 124 3.0 10.0 0.00 0.00 0.00 55 1013.9
20220807130303 86 101 6.0 12.0 0.00 0.00 0.00 53 1013.9
20220807125802 86 112 6.0 12.0 0.00 0.00 0.00 54 1014.0
20220807125305 86 148 6.0 13.0 0.00 0.00 0.00 53 1013.9
20220807124803 87 140 6.0 13.0 0.00 0.00 0.00 55 1014.0
20220807124302 87 121 4.0 12.0 0.00 0.00 0.00 56 1014.1
20220807123802 87 131 7.0 12.0 0.00 0.00 0.00 55 1014.2
20220807123303 87 101 5.0 12.0 0.00 0.00 0.00 56 1014.2
20220807122802 87 126 5.0 12.0 0.00 0.00 0.00 55 1014.2
20220807122305 87 100 5.0 10.0 0.00 0.00 0.00 56 1014.2
20220807121302 87 127 6.0 12.0 0.00 0.00 0.00 51 1014.3
20220807120802 86 150 6.0 12.0 0.00 0.00 0.00 52 1014.3
20220807120302 87 129 5.0 14.0 0.00 0.00 0.00 53 1014.3
20220807115305 87 150 4.0 10.0 0.00 0.00 0.00 54 1014.4
20220807114803 87 109 8.0 12.0 0.00 0.00 0.00 51 1014.5
20220807113303 87 120 4.0 12.0 0.00 0.00 0.00 55 1014.7
20220807112305 86 132 5.0 17.0 0.00 0.00 0.00 55 1014.6
20220807111803 87 138 1.0 12.0 0.00 0.00 0.00 54 1014.7
20220807111303 87 141 4.0 12.0 0.00 0.00 0.00 59 1014.7
20220807110803 86 149 3.0 12.0 0.00 0.00 0.00 57 1014.7
20220807110303 86 133 6.0 13.0 0.00 0.00 0.00 54 1014.7
20220807105803 86 113 7.0 12.0 0.00 0.00 0.00 57 1014.7
20220807105305 86 120 3.0 13.0 0.00 0.00 0.00 55 1014.8
20220807104803 86 118 4.0 13.0 0.00 0.00 0.00 60 1014.8
20220807104303 86 139 5.0 13.0 0.00 0.00 0.00 56 1014.8
20220807103803 86 126 4.0 10.0 0.00 0.00 0.00 59 1014.8
20220807103303 86 95 7.0 14.0 0.00 0.00 0.00 63 1014.9
20220807102802 86 92 6.0 10.0 0.00 0.00 0.00 60 1014.9
20220807102305 86 88 7.0 14.0 0.00 0.00 0.00 62 1014.9
20220807101803 86 122 6.0 13.0 0.00 0.00 0.00 66 1014.9
20220807101303 86 109 6.0 12.0 0.00 0.00 0.00 67 1014.9
20220807100803 86 152 6.0 13.0 0.00 0.00 0.00 64 1014.9
20220807100303 86 136 6.0 12.0 0.00 0.00 0.00 62 1014.9
20220807095803 86 123 7.0 12.0 0.00 0.00 0.00 64 1014.9